Latest Weather Observations for Groote Eylandt Airport

IDD60801

Issued at 4:35 pm CST Monday 21 April 2014 (issued every 30 minutes, with the page automatically refreshed every 10 minutes)

About weather observations | Map of weather stations | Latest weather observations for NT | Other Formats
Station Details ID: 014518 Name: GROOTE EYLANDT AIRPORT Lat: -13.97 Lon: 136.46 Height: 13.7 m
Data from the previous 72 hours. | See also: Recent months at Groote Eylandt Airport
Date/Time
CST
Temp
°C
App
Temp
°C
Dew
Point
Rel
Hum
%
Delta-T
°C
Wind Press
QNH
hPa
Press
MSL
hPa
Rain
since 9 am
mm
Dir
 
Spd
km/h
Gust
km/h
Spd
kts
Gust
kts
21/04:30pm 30.3 31.6 21.7 60 5.8 E 17 28 9 15 1010.1 - 0.0
21/04:00pm 30.8 31.9 22.4 61 5.7 E 20 28 11 15 1009.9 - 0.0
21/03:30pm 30.9 31.3 21.7 58 6.2 E 22 30 12 16 1009.8 - 0.0
21/03:00pm 31.2 32.0 21.4 56 6.6 ESE 19 28 10 15 1009.6 1009.5 0.0
21/02:30pm 31.3 31.7 20.6 53 7.1 E 19 30 10 16 1009.6 - 0.0
21/02:00pm 31.6 30.6 20.5 51 7.4 E 26 35 14 19 1009.8 - 0.0
21/01:30pm 31.8 30.8 20.4 51 7.6 E 26 35 14 19 1010.0 - 0.0
21/01:00pm 31.9 32.4 22.0 55 6.7 E 22 37 12 20 1010.3 - 0.0
21/12:30pm 31.8 32.0 21.3 53 7.1 E 22 33 12 18 1010.4 - 0.0
21/12:00pm 31.5 31.5 21.7 56 6.6 E 24 37 13 20 1010.7 1010.6 0.0
21/11:30am 31.6 33.9 23.4 61 5.7 ESE 17 26 9 14 1011.1 - 0.0
21/11:00am 31.3 32.0 22.9 61 5.8 E 24 33 13 18 1011.4 - 0.0
21/10:30am 30.6 30.9 22.2 61 5.7 E 24 35 13 19 1011.5 - 0.0
21/10:00am 30.7 31.3 22.8 62 5.4 E 24 35 13 19 1011.6 - 0.0
21/09:30am 30.1 33.0 23.8 69 4.4 E 15 26 8 14 1011.6 - 0.0
21/09:00am 29.4 32.2 23.6 71 4.0 E 15 22 8 12 1011.5 1011.4 0.0
21/08:30am 27.5 32.1 24.1 82 2.3 ESE 7 13 4 7 1011.3 - 0.0
21/08:00am 24.4 30.4 24.2 99 0.1 CALM 0 0 0 0 1011.2 - 0.0
21/07:30am 22.7 27.7 22.5 99 0.1 CALM 0 0 0 0 1011.0 - 0.0
21/07:00am 21.8 26.3 21.6 99 0.1 CALM 0 0 0 0 1010.5 - 0.0
21/06:30am 21.6 26.0 21.4 99 0.1 CALM 0 0 0 0 1010.2 - 0.0
21/06:00am 21.5 25.9 21.3 99 0.1 E 0 0 0 0 1009.8 1009.7 0.0
21/05:30am 21.8 26.3 21.6 99 0.1 CALM 0 0 0 0 1009.7 - 0.0
21/05:00am 21.6 26.0 21.4 99 0.1 CALM 0 0 0 0 1009.6 - 0.0
21/04:30am 21.7 26.2 21.5 99 0.1 CALM 0 0 0 0 1009.8 - 0.0
21/04:00am 21.9 26.5 21.7 99 0.1 CALM 0 0 0 0 1009.9 - 0.0
21/03:30am 22.1 26.8 21.9 99 0.1 CALM 0 0 0 0 1009.6 - 0.0
21/03:00am 22.3 27.1 22.1 99 0.1 CALM 0 0 0 0 1009.7 1009.6 0.0
21/02:30am 22.4 27.2 22.2 99 0.1 CALM 0 0 0 0 1009.8 - 0.0
21/02:00am 22.4 27.2 22.2 99 0.1 CALM 0 0 0 0 1009.7 - 0.0
21/01:30am 22.6 27.5 22.4 99 0.1 CALM 0 0 0 0 1010.1 - 0.0
21/01:00am 22.6 27.5 22.3 98 0.2 CALM 0 0 0 0 1010.5 - 0.0
21/12:30am 22.8 27.8 22.5 98 0.2 CALM 0 0 0 0 1010.8 - 0.0
21/12:00am 22.9 28.0 22.6 98 0.2 SSE 0 0 0 0 1011.0 1010.9 0.0
 
Date/Time
CST
Temp
°C
App
Temp
°C
Dew
Point
Rel
Hum
%
Delta-T
°C
Wind Press
QNH
hPa
Press
MSL
hPa
Rain
since 9 am
mm
Dir
 
Spd
km/h
Gust
km/h
Spd
kts
Gust
kts
20/11:30pm 23.0 28.0 22.5 97 0.3 CALM 0 0 0 0 1011.2 - 0.0
20/11:00pm 23.2 28.3 22.7 97 0.3 SSE 0 0 0 0 1011.6 - 0.0
20/10:30pm 23.5 28.7 22.8 96 0.5 CALM 0 0 0 0 1011.6 - 0.0
20/10:00pm 23.8 29.0 22.9 95 0.6 CALM 0 0 0 0 1011.9 - 0.0
20/09:30pm 24.0 29.2 22.8 93 0.8 CALM 0 0 0 0 1012.0 - 0.0
20/09:00pm 24.6 30.0 23.2 92 0.9 CALM 0 0 0 0 1012.1 1012.0 0.0
20/08:30pm 24.8 30.3 23.4 92 1.0 CALM 0 0 0 0 1011.9 - 0.0
20/08:00pm 25.4 31.0 23.5 89 1.3 CALM 0 0 0 0 1011.6 - 0.0
20/07:30pm 26.1 31.9 24.0 88 1.4 CALM 0 0 0 0 1011.5 - 0.0
20/07:00pm 26.5 32.0 23.4 83 2.1 CALM 0 7 0 4 1011.0 - 0.0
20/06:30pm 27.0 31.0 22.8 78 2.8 ESE 6 9 3 5 1010.4 - 0.0
20/06:00pm 27.6 32.6 23.2 77 3.0 ESE 2 7 1 4 1010.1 1010.0 0.0
20/05:30pm 28.1 31.3 23.0 74 3.5 ESE 11 17 6 9 1009.9 - 0.0
20/05:00pm 28.3 31.8 22.8 72 3.7 ESE 9 15 5 8 1009.7 - 0.0
20/04:30pm 28.5 31.0 22.5 70 4.1 ESE 13 22 7 12 1009.4 - 0.0
20/04:00pm 28.8 31.0 23.2 71 3.8 E 17 22 9 12 1009.2 - 0.0
20/03:30pm 28.8 31.7 23.9 75 3.4 E 15 20 8 11 1008.8 - 0.0
20/03:00pm 27.7 33.5 25.1 86 1.8 SSE 4 9 2 5 1009.0 1008.9 0.0
20/02:30pm 25.7 30.0 23.7 89 1.4 NNE 7 11 4 6 1008.9 - 0.0
20/02:00pm 25.4 27.0 22.9 86 1.7 ENE 19 39 10 21 1009.8 - 0.0
20/01:53pm 25.8 24.6 22.7 83 2.1 E 33 52 18 28 1009.8 - 0.0
20/01:45pm 28.0 25.5 23.1 74 3.3 E 41 52 22 28 1009.5 - 0.0
20/01:30pm 27.9 30.2 23.5 77 3.0 E 17 26 9 14 1009.5 - 0.0
20/01:11pm 27.9 28.0 23.3 76 3.1 E 28 46 15 25 1009.8 - 0.0
20/01:06pm 28.4 28.4 23.8 76 3.2 E 30 46 16 25 1009.6 - 0.0
20/01:00pm 28.9 35.6 26.5 87 1.7 SE 4 9 2 5 1009.6 - 0.0
20/12:30pm 26.7 31.6 24.7 89 1.4 E 7 9 4 5 1010.0 - 0.0
20/12:00pm 26.2 25.5 22.5 80 2.5 E 30 41 16 22 1010.6 1010.5 0.0
20/11:54am 28.4 27.1 23.1 73 3.6 E 35 41 19 22 1010.5 - 0.0
20/11:30am 28.4 32.2 24.0 77 3.0 ESE 11 19 6 10 1010.7 - 0.0
20/11:00am 28.4 28.6 21.4 66 4.7 ESE 22 35 12 19 1011.1 - 0.0
20/10:30am 28.4 33.3 24.6 80 2.6 SSE 7 11 4 6 1011.3 - 0.0
20/10:00am 26.9 29.4 22.5 77 3.0 SSE 13 24 7 13 1011.6 - 0.0
20/09:30am 28.0 28.3 22.9 74 3.5 E 26 35 14 19 1011.3 - 0.0
20/09:29am 28.1 27.9 22.8 73 3.6 E 28 35 15 19 1011.3 - 0.0
20/09:00am 29.7 34.2 24.6 74 3.6 ESE 9 15 5 8 1011.0 1010.9 0.0
20/08:30am 28.6 33.9 25.0 81 2.5 E 6 7 3 4 1010.9 - 0.0
20/08:00am 26.6 33.1 25.0 91 1.1 CALM 0 0 0 0 1010.7 - 0.0
20/07:30am 24.6 30.7 24.4 99 0.1 CALM 0 0 0 0 1010.6 - 0.0
20/07:00am 23.0 28.2 22.8 99 0.1 CALM 0 0 0 0 1010.2 - 0.0
20/06:30am 22.5 27.4 22.3 99 0.1 CALM 0 0 0 0 1009.9 - 0.0
20/06:00am 22.6 27.5 22.4 99 0.1 CALM 0 0 0 0 1009.7 1009.6 0.0
20/05:30am 22.8 27.9 22.6 99 0.1 CALM 0 0 0 0 1009.4 - 0.0
20/05:00am 22.8 27.9 22.6 99 0.1 CALM 0 0 0 0 1009.1 - 0.0
20/04:30am 22.9 28.0 22.7 99 0.1 CALM 0 0 0 0 1009.0 - 0.0
20/04:00am 23.0 28.2 22.8 99 0.1 CALM 0 0 0 0 1009.0 - 0.0
20/03:30am 23.0 27.4 22.8 99 0.1 E 4 7 2 4 1009.1 - 0.0
20/03:00am 23.2 28.5 23.0 99 0.1 CALM 0 0 0 0 1009.3 1009.2 0.0
20/02:30am 23.5 28.9 23.3 99 0.1 CALM 0 0 0 0 1009.5 - 0.0
20/02:00am 23.3 28.6 23.1 99 0.1 CALM 0 0 0 0 1009.6 - 0.0
20/01:30am 23.6 29.1 23.4 99 0.1 CALM 0 0 0 0 1009.8 - 0.0
20/01:00am 23.7 29.3 23.5 99 0.1 CALM 0 0 0 0 1010.2 - 0.0
20/12:30am 23.8 29.0 23.6 99 0.1 SE 2 7 1 4 1010.5 - 0.0
20/12:00am 24.0 29.4 23.8 99 0.1 SE 2 9 1 5 1010.8 1010.7 0.0
 
Date/Time
CST
Temp
°C
App
Temp
°C
Dew
Point
Rel
Hum
%
Delta-T
°C
Wind Press
QNH
hPa
Press
MSL
hPa
Rain
since 9 am
mm
Dir
 
Spd
km/h
Gust
km/h
Spd
kts
Gust
kts
19/11:30pm 24.3 30.2 24.1 99 0.1 CALM 0 0 0 0 1011.1 - 0.0
19/11:00pm 24.3 30.2 24.1 99 0.1 CALM 0 0 0 0 1011.4 - 0.0
19/10:30pm 24.4 30.4 24.2 99 0.1 CALM 0 0 0 0 1011.6 - 0.0
19/10:00pm 24.4 30.3 24.1 98 0.2 CALM 0 0 0 0 1011.6 - 0.0
19/09:30pm 24.8 31.0 24.6 99 0.1 CALM 0 0 0 0 1011.7 - 0.0
19/09:00pm 24.7 30.8 24.5 99 0.1 CALM 0 0 0 0 1011.8 1011.7 0.0
19/08:30pm 24.8 31.0 24.6 99 0.1 CALM 0 0 0 0 1011.9 - 0.0
19/08:00pm 24.6 30.7 24.4 99 0.1 CALM 0 0 0 0 1011.5 - 0.0
19/07:30pm 24.6 30.6 24.3 98 0.2 CALM 0 0 0 0 1011.3 - 0.0
19/07:00pm 24.4 30.3 24.1 98 0.2 CALM 0 0 0 0 1011.2 - 0.0
19/06:30pm 24.3 30.1 24.0 98 0.2 CALM 0 0 0 0 1011.0 - 0.0
19/06:00pm 24.3 29.0 24.0 98 0.2 E 6 9 3 5 1011.0 1010.9 0.0
19/05:30pm 24.2 28.3 23.9 98 0.2 SSE 9 19 5 10 1010.6 - 0.0
19/05:00pm 24.6 26.4 23.2 92 0.9 SSE 19 33 10 18 1010.0 - 0.0
19/04:30pm 24.9 26.0 22.4 86 1.7 ENE 20 28 11 15 1009.4 - 0.0
19/04:09pm 26.2 25.9 22.5 80 2.5 ENE 28 46 15 25 1009.3 - 0.0
19/04:00pm 29.3 31.2 22.8 68 4.4 ESE 17 35 9 19 1008.8 - 0.0
19/03:30pm 31.0 33.0 23.9 66 4.9 E 20 28 11 15 1008.6 - 0.0
19/03:00pm 30.8 32.7 22.7 62 5.5 E 17 26 9 14 1008.6 1008.5 0.0
19/02:30pm 31.6 32.2 23.4 61 5.7 E 26 35 14 19 1008.6 - 0.0
19/02:00pm 31.2 33.3 24.1 66 4.9 E 20 32 11 17 1008.9 - 0.0
19/01:30pm 30.5 34.4 24.9 72 3.9 ESE 13 30 7 16 1009.6 - 0.0
19/01:00pm 29.9 32.6 24.8 74 3.6 E 19 26 10 14 1009.9 - 0.0
19/12:30pm 31.4 33.2 23.2 61 5.7 ESE 19 28 10 15 1010.1 - 0.0
19/12:00pm 31.8 33.2 23.6 62 5.7 E 22 30 12 16 1010.6 1010.5 0.0
19/11:30am 31.6 32.4 23.2 61 5.8 E 24 32 13 17 1010.7 - 0.0
19/11:00am 31.3 33.2 23.7 64 5.3 E 20 30 11 16 1011.0 - 0.0
19/10:30am 30.9 32.8 23.8 66 4.9 E 20 28 11 15 1011.3 - 0.0
19/10:00am 30.8 34.3 24.2 68 4.6 ESE 13 24 7 13 1011.7 - 0.0
19/09:30am 30.2 33.1 24.4 71 4.0 E 17 24 9 13 1011.8 - 0.0
19/09:00am 30.2 34.8 24.8 73 3.8 ESE 9 15 5 8 1011.7 1011.6 0.0
19/08:30am 29.0 33.6 24.8 78 2.9 ESE 9 15 5 8 1011.7 - 0.0
19/08:00am 27.8 34.1 25.4 87 1.7 ESE 2 7 1 4 1011.5 - 0.0
19/07:30am 25.6 31.9 25.4 99 0.1 SE 2 6 1 3 1011.3 - 0.0
19/07:00am 24.0 29.7 23.8 99 0.1 CALM 0 0 0 0 1011.0 - 0.0
19/06:30am 24.0 29.7 23.8 99 0.1 CALM 0 0 0 0 1010.7 - 0.0
19/06:00am 24.1 29.9 23.9 99 0.1 CALM 0 6 0 3 1010.3 1010.2 0.0
19/05:30am 24.2 28.9 24.0 99 0.1 ESE 6 7 3 4 1010.2 - 0.0
19/05:00am 24.5 30.5 24.3 99 0.1 CALM 0 0 0 0 1010.3 - 0.0
19/04:30am 24.7 29.7 24.5 99 0.1 ESE 6 7 3 4 1010.0 - 0.0
19/04:00am 24.8 30.3 24.6 99 0.1 SE 4 6 2 3 1009.9 - 0.0
19/03:30am 24.8 29.9 24.6 99 0.1 S 6 7 3 4 1010.0 - 0.0
19/03:00am 24.9 31.1 24.6 98 0.2 CALM 0 0 0 0 1010.3 1010.2 0.0
19/02:30am 25.2 31.6 24.9 98 0.2 CALM 0 0 0 0 1010.6 - 0.0
19/02:00am 25.1 31.4 24.8 98 0.2 CALM 0 0 0 0 1010.7 - 0.0
19/01:30am 25.2 31.6 24.9 98 0.2 CALM 0 0 0 0 1011.0 - 0.0
19/01:00am 25.2 31.6 24.9 98 0.2 CALM 0 0 0 0 1011.3 - 0.0
19/12:30am 25.5 32.1 25.2 98 0.2 CALM 0 0 0 0 1012.2 - 0.0
19/12:00am 25.4 31.9 25.1 98 0.2 CALM 0 0 0 0 1012.7 1012.6 0.0
 
Date/Time
CST
Temp
°C
App
Temp
°C
Dew
Point
Rel
Hum
%
Delta-T
°C
Wind Press
QNH
hPa
Press
MSL
hPa
Rain
since 9 am
mm
Dir
 
Spd
km/h
Gust
km/h
Spd
kts
Gust
kts
18/11:30pm 25.8 32.4 25.3 97 0.3 CALM 0 0 0 0 1013.0 - 0.0
18/11:00pm 25.7 32.4 25.4 98 0.2 CALM 0 0 0 0 1013.2 - 0.0
18/10:30pm 25.5 32.1 25.2 98 0.2 CALM 0 0 0 0 1013.1 - 0.0
18/10:00pm 25.7 32.4 25.4 98 0.2 CALM 0 0 0 0 1013.3 - 0.0
18/09:30pm 25.7 32.2 25.0 96 0.5 CALM 0 0 0 0 1013.2 - 0.0
18/09:00pm 25.8 32.3 25.1 96 0.5 CALM 0 0 0 0 1013.3 1013.2 0.0
18/08:30pm 26.1 32.5 24.9 93 0.8 CALM 0 0 0 0 1013.2 - 0.0
18/08:00pm 26.1 32.7 25.2 95 0.6 CALM 0 0 0 0 1012.8 - 0.0
18/07:30pm 26.2 32.5 24.8 92 1.0 CALM 0 0 0 0 1012.3 - 0.0
18/07:00pm 26.2 32.4 24.6 91 1.1 CALM 0 0 0 0 1012.0 - 0.0
18/06:30pm 26.5 32.6 24.5 89 1.4 CALM 0 0 0 0 1011.7 - 0.0
18/06:00pm 26.9 33.0 24.5 87 1.7 CALM 0 0 0 0 1011.3 1011.2 0.0
18/05:30pm 27.1 32.6 24.6 86 1.7 S 4 6 2 3 1011.2 - 0.0
18/05:00pm 27.3 32.8 24.6 85 1.9 S 4 7 2 4 1011.0 - 0.0

Other Formats:

Comma delimited format used in spreadsheet applications
http://www.bom.gov.au/fwo/IDD60801/IDD60801.94153.axf

JavaScript Object Notation format (JSON) in row-major order
http://www.bom.gov.au/fwo/IDD60801/IDD60801.94153.json